createdAt,value
2022-08-01T00:02:12.930Z,101334.00
2022-08-01T00:04:43.887Z,101370.00
2022-08-01T00:07:12.361Z,101368.00
2022-08-01T00:09:40.858Z,101376.00
2022-08-01T00:12:10.554Z,101369.00
2022-08-01T00:14:39.205Z,101379.00
2022-08-01T00:17:07.863Z,101340.00
2022-08-01T00:19:36.935Z,101388.00
2022-08-01T00:22:07.074Z,101384.00
2022-08-01T00:24:35.801Z,101367.00
2022-08-01T00:27:04.142Z,101385.00
2022-08-01T00:30:01.976Z,101380.00
2022-08-01T00:32:21.195Z,101361.00
2022-08-01T00:34:49.549Z,101383.00
2022-08-01T00:37:20.781Z,101387.00
2022-08-01T00:39:49.119Z,101387.00
2022-08-01T00:42:17.406Z,101385.00
2022-08-01T00:44:47.031Z,101379.00
2022-08-01T00:47:15.296Z,101376.00
2022-08-01T00:49:44.064Z,101381.00
2022-08-01T00:52:12.919Z,101391.00
2022-08-01T00:54:43.323Z,101385.00
2022-08-01T00:57:15.081Z,101383.00
2022-08-01T00:59:43.890Z,101386.00
2022-08-01T01:02:14.954Z,101381.00
2022-08-01T01:04:45.165Z,101388.00
2022-08-01T01:07:21.686Z,101382.00
2022-08-01T01:09:59.316Z,101382.00
2022-08-01T01:12:41.745Z,101384.00
2022-08-01T01:15:15.291Z,101366.00
2022-08-01T01:17:51.982Z,101380.00
2022-08-01T01:20:24.314Z,101377.00
2022-08-01T01:23:13.286Z,101383.00
2022-08-01T01:26:11.207Z,101387.00
2022-08-01T01:28:59.653Z,101384.00
2022-08-01T01:31:29.334Z,101386.00
2022-08-01T01:33:59.501Z,101389.00
2022-08-01T01:36:29.501Z,101387.00
2022-08-01T01:38:58.780Z,101380.00
2022-08-01T01:41:27.981Z,101384.00
2022-08-01T01:43:58.796Z,101348.00
2022-08-01T01:46:29.712Z,101400.00
2022-08-01T01:48:59.071Z,101398.00
2022-08-01T01:51:30.106Z,101402.00
2022-08-01T01:54:00.357Z,101358.00
2022-08-01T01:56:30.135Z,101396.00
2022-08-01T01:59:04.093Z,101398.00
2022-08-01T02:01:38.860Z,101400.00
2022-08-01T02:04:25.439Z,101393.00
2022-08-01T02:06:55.151Z,101389.00
2022-08-01T02:09:25.467Z,101401.00
2022-08-01T02:12:07.528Z,101404.00
2022-08-01T02:14:41.083Z,101413.00
2022-08-01T02:17:11.455Z,101409.00
2022-08-01T02:19:40.331Z,101411.00
2022-08-01T02:22:13.517Z,101404.00
2022-08-01T02:24:47.480Z,101410.00
2022-08-01T02:27:20.043Z,101415.00
2022-08-01T02:29:55.410Z,101388.00
2022-08-01T02:32:33.046Z,101370.00
2022-08-01T02:35:04.680Z,101385.00
2022-08-01T02:37:42.939Z,101408.00
2022-08-01T02:40:17.226Z,101409.00
2022-08-01T02:42:51.766Z,101387.00
2022-08-01T02:45:27.659Z,101376.00
2022-08-01T02:48:02.841Z,101386.00
2022-08-01T02:50:34.234Z,101405.00
2022-08-01T02:53:04.194Z,101397.00
2022-08-01T02:55:35.187Z,101400.00
2022-08-01T02:58:04.616Z,101410.00
2022-08-01T03:00:35.576Z,101410.00
2022-08-01T03:03:08.081Z,101411.00
2022-08-01T03:05:38.230Z,101412.00
2022-08-01T03:08:11.900Z,101416.00
2022-08-01T03:10:46.921Z,101426.00
2022-08-01T03:13:16.852Z,101417.00
2022-08-01T03:15:48.078Z,101429.00
2022-08-01T03:18:19.103Z,101412.00
2022-08-01T03:20:48.705Z,101426.00
2022-08-01T03:23:19.386Z,101429.00
2022-08-01T03:25:48.978Z,101430.00
2022-08-01T03:28:20.191Z,101411.00
2022-08-01T03:30:51.702Z,101428.00
2022-08-01T03:33:20.385Z,101430.00
2022-08-01T03:35:52.888Z,101406.00
2022-08-01T03:38:25.282Z,101398.00
2022-08-01T03:40:56.669Z,101433.00
2022-08-01T03:43:33.118Z,101404.00
2022-08-01T03:46:09.044Z,101431.00
2022-08-01T03:48:43.603Z,101434.00
2022-08-01T03:51:14.316Z,101426.00
2022-08-01T03:53:45.004Z,101415.00
2022-08-01T03:56:20.092Z,101412.00
2022-08-01T03:58:50.168Z,101397.00
2022-08-01T04:01:21.020Z,101409.00
2022-08-01T04:03:49.764Z,101437.00
2022-08-01T04:06:18.262Z,101426.00
2022-08-01T04:08:56.432Z,101416.00
2022-08-01T04:11:27.078Z,101416.00
2022-08-01T04:13:56.888Z,101434.00
2022-08-01T04:16:27.910Z,101418.00
2022-08-01T04:18:56.221Z,101409.00
2022-08-01T04:21:29.710Z,101458.00
2022-08-01T04:24:05.967Z,101433.00
2022-08-01T04:26:37.227Z,101444.00
2022-08-01T04:29:07.406Z,101436.00
2022-08-01T04:31:38.506Z,101437.00
2022-08-01T04:34:09.451Z,101462.00
2022-08-01T04:36:42.850Z,101435.00
2022-08-01T04:39:11.941Z,101468.00
2022-08-01T04:41:42.191Z,101461.00
2022-08-01T04:44:10.708Z,101457.00
2022-08-01T04:46:41.784Z,101453.00
2022-08-01T04:49:12.909Z,101455.00
2022-08-01T04:51:58.393Z,101475.00
2022-08-01T04:54:27.722Z,101479.00
2022-08-01T04:57:00.692Z,101460.00
2022-08-01T04:59:44.249Z,101465.00
2022-08-01T05:02:16.076Z,101481.00
2022-08-01T05:04:45.528Z,101453.00
2022-08-01T05:07:14.876Z,101494.00
2022-08-01T05:09:44.006Z,101496.00
2022-08-01T05:12:12.941Z,101502.00
2022-08-01T05:14:42.381Z,101506.00
2022-08-01T05:17:12.000Z,101494.00
2022-08-01T05:19:43.908Z,101508.00
2022-08-01T05:22:13.283Z,101481.00
2022-08-01T05:24:43.567Z,101482.00
2022-08-01T05:27:14.892Z,101501.00
2022-08-01T05:29:45.112Z,101487.00
2022-08-01T05:32:13.704Z,101483.00
2022-08-01T05:34:43.997Z,101507.00
2022-08-01T05:37:12.771Z,101494.00
2022-08-01T05:39:41.130Z,101523.00
2022-08-01T05:42:09.732Z,101521.00
2022-08-01T05:44:38.156Z,101494.00
2022-08-01T05:47:06.783Z,101519.00
2022-08-01T05:49:35.252Z,101527.00
2022-08-01T05:52:06.440Z,101504.00
2022-08-01T05:54:34.980Z,101520.00
2022-08-01T05:57:03.648Z,101517.00
2022-08-01T05:59:32.812Z,101521.00
2022-08-01T06:02:04.205Z,101523.00
2022-08-01T06:04:32.803Z,101509.00
2022-08-01T06:07:01.138Z,101516.00
2022-08-01T06:09:31.769Z,101527.00
2022-08-01T06:12:00.039Z,101526.00
2022-08-01T06:14:28.308Z,101525.00
2022-08-01T06:16:56.698Z,101529.00
2022-08-01T06:19:25.200Z,101497.00
2022-08-01T06:21:53.613Z,101517.00
2022-08-01T06:24:25.455Z,101509.00
2022-08-01T06:26:56.674Z,101558.00
2022-08-01T06:29:25.559Z,101534.00
2022-08-01T06:31:53.868Z,101551.00
2022-08-01T06:34:23.273Z,101550.00
2022-08-01T06:37:50.202Z,101528.00
2022-08-01T06:40:29.808Z,101567.00
2022-08-01T06:43:12.315Z,101538.00
2022-08-01T06:45:40.799Z,101573.00
2022-08-01T06:48:09.173Z,101570.00
2022-08-01T06:50:37.958Z,101535.00
2022-08-01T06:53:06.473Z,101577.00
2022-08-01T06:55:35.006Z,101585.00
2022-08-01T06:58:04.988Z,101580.00
2022-08-01T07:00:33.564Z,101546.00
2022-08-01T07:03:02.019Z,101565.00
2022-08-01T07:05:32.135Z,101546.00
2022-08-01T07:08:00.879Z,101560.00
2022-08-01T07:10:29.234Z,101562.00
2022-08-01T07:12:57.549Z,101546.00
2022-08-01T07:15:28.348Z,101592.00
2022-08-01T07:17:57.963Z,101565.00
2022-08-01T07:20:26.391Z,101573.00
2022-08-01T07:22:56.535Z,101571.00
2022-08-01T07:25:25.530Z,101572.00
2022-08-01T07:27:54.110Z,101592.00
2022-08-01T07:30:22.704Z,101577.00
2022-08-01T07:32:52.502Z,101553.00
2022-08-01T07:35:21.013Z,101597.00
2022-08-01T07:37:49.536Z,101602.00
2022-08-01T07:40:19.234Z,101597.00
2022-08-01T07:42:48.003Z,101565.00
2022-08-01T07:45:16.792Z,101602.00
2022-08-01T07:47:45.223Z,101563.00
2022-08-01T07:50:15.399Z,101583.00
2022-08-01T07:52:44.157Z,101585.00
2022-08-01T07:55:16.717Z,101606.00
2022-08-01T07:57:45.769Z,101604.00
2022-08-01T08:00:15.513Z,101626.00
2022-08-01T08:02:45.046Z,101632.00
2022-08-01T08:05:15.165Z,101631.00
2022-08-01T08:07:43.434Z,101628.00
2022-08-01T08:10:12.797Z,101638.00
2022-08-01T08:12:41.460Z,101643.00
2022-08-01T08:15:12.281Z,101638.00
2022-08-01T08:17:40.694Z,101635.00
2022-08-01T08:20:10.750Z,101642.00
2022-08-01T08:22:40.759Z,101624.00
2022-08-01T08:25:10.739Z,101646.00
2022-08-01T08:27:40.888Z,101658.00
2022-08-01T08:30:12.103Z,101633.00
2022-08-01T08:32:41.316Z,101658.00
2022-08-01T08:35:11.862Z,101660.00
2022-08-01T08:37:47.669Z,101660.00
2022-08-01T08:40:18.932Z,101642.00
2022-08-01T08:42:48.524Z,101664.00
2022-08-01T08:45:16.794Z,101675.00
2022-08-01T08:47:49.507Z,101666.00
2022-08-01T08:50:18.197Z,101644.00
2022-08-01T08:52:50.119Z,101635.00
2022-08-01T08:55:19.926Z,101673.00
2022-08-01T08:57:49.420Z,101648.00
2022-08-01T09:00:18.247Z,101672.00
2022-08-01T09:02:50.073Z,101677.00
2022-08-01T09:05:26.486Z,101680.00
2022-08-01T09:08:11.066Z,101677.00
2022-08-01T09:10:39.396Z,101649.00
2022-08-01T09:13:12.061Z,101681.00
2022-08-01T09:15:42.816Z,101686.00
2022-08-01T09:18:28.422Z,101688.00
2022-08-01T09:21:18.541Z,101645.00
2022-08-01T09:23:53.305Z,101700.00
2022-08-01T09:26:31.067Z,101700.00
2022-08-01T09:29:00.341Z,101703.00
2022-08-01T09:31:37.929Z,101696.00
2022-08-01T09:34:09.213Z,101704.00
2022-08-01T09:36:54.373Z,101706.00
2022-08-01T09:39:27.557Z,101701.00
2022-08-01T09:41:58.287Z,101705.00
2022-08-01T09:44:42.635Z,101694.00
2022-08-01T09:47:15.396Z,101682.00
2022-08-01T09:49:50.135Z,101704.00
2022-08-01T09:52:25.601Z,101702.00
2022-08-01T09:54:59.085Z,101689.00
2022-08-01T09:57:28.963Z,101685.00
2022-08-01T10:00:01.059Z,101704.00
2022-08-01T10:02:34.410Z,101708.00
2022-08-01T10:05:08.250Z,101711.00
2022-08-01T10:07:42.719Z,101707.00
2022-08-01T10:10:17.054Z,101712.00
2022-08-01T10:12:46.029Z,101710.00
2022-08-01T10:15:21.350Z,101697.00
2022-08-01T10:17:57.132Z,101699.00
2022-08-01T10:20:32.260Z,101707.00
2022-08-01T10:23:06.421Z,101707.00
2022-08-01T10:25:46.613Z,101709.00
2022-08-01T10:28:23.830Z,101700.00
2022-08-01T10:30:53.574Z,101705.00
2022-08-01T10:33:50.734Z,101711.00
2022-08-01T10:36:14.565Z,101702.00
2022-08-01T10:38:45.501Z,101716.00
2022-08-01T10:41:17.162Z,101714.00
2022-08-01T10:43:46.919Z,101706.00
2022-08-01T10:46:16.142Z,101686.00
2022-08-01T10:48:57.094Z,101687.00
2022-08-01T10:51:52.424Z,101693.00
2022-08-01T10:54:18.119Z,101688.00
2022-08-01T10:56:50.015Z,101686.00
2022-08-01T10:59:29.178Z,101702.00
2022-08-01T11:02:13.096Z,101708.00
2022-08-01T11:04:57.230Z,101712.00
2022-08-01T11:07:41.215Z,101700.00
2022-08-01T11:10:24.530Z,101711.00
2022-08-01T11:12:54.331Z,101704.00
2022-08-01T11:15:30.293Z,101707.00
2022-08-01T11:18:04.753Z,101710.00
2022-08-01T11:20:42.480Z,101697.00
2022-08-01T11:23:23.341Z,101701.00
2022-08-01T11:26:28.773Z,101706.00
2022-08-01T11:29:22.784Z,101705.00
2022-08-01T11:31:52.876Z,101699.00
2022-08-01T11:34:21.833Z,101706.00
2022-08-01T11:36:59.455Z,101704.00
2022-08-01T11:39:29.570Z,101716.00
2022-08-01T11:42:22.104Z,101710.00
2022-08-01T11:44:53.365Z,101718.00
2022-08-01T11:47:50.847Z,101715.00
2022-08-01T11:50:34.317Z,101719.00
2022-08-01T11:53:05.134Z,101722.00
2022-08-01T11:55:35.795Z,101720.00
2022-08-01T11:58:07.056Z,101733.00
2022-08-01T12:00:38.236Z,101713.00
2022-08-01T12:03:19.165Z,101710.00
2022-08-01T12:06:02.427Z,101722.00
2022-08-01T12:08:34.284Z,101726.00
2022-08-01T12:11:03.144Z,101723.00
2022-08-01T12:13:44.396Z,101727.00
2022-08-01T12:16:14.334Z,101715.00
2022-08-01T12:18:45.488Z,101728.00
2022-08-01T12:21:13.794Z,101722.00
2022-08-01T12:23:42.482Z,101719.00
2022-08-01T12:26:26.634Z,101720.00
2022-08-01T12:28:59.228Z,101712.00
2022-08-01T12:31:34.692Z,101717.00
2022-08-01T12:34:34.998Z,101734.00
2022-08-01T12:37:05.844Z,101731.00
2022-08-01T12:39:35.449Z,101730.00
2022-08-01T12:42:07.625Z,101727.00
2022-08-01T12:44:36.636Z,101720.00
2022-08-01T12:47:08.334Z,101731.00
2022-08-01T12:49:40.052Z,101728.00
2022-08-01T12:52:13.090Z,101707.00
2022-08-01T12:55:11.773Z,101727.00
2022-08-01T12:57:42.930Z,101738.00
2022-08-01T13:00:19.363Z,101732.00
2022-08-01T13:02:49.917Z,101720.00
2022-08-01T13:05:19.842Z,101730.00
2022-08-01T13:07:51.440Z,101729.00
2022-08-01T13:10:29.290Z,101733.00
2022-08-01T13:12:59.887Z,101729.00
2022-08-01T13:15:33.087Z,101724.00
2022-08-01T13:18:03.506Z,101715.00
2022-08-01T13:20:36.205Z,101719.00
2022-08-01T13:23:18.125Z,101721.00
2022-08-01T13:26:06.610Z,101708.00
2022-08-01T13:28:37.486Z,101726.00
2022-08-01T13:31:08.950Z,101732.00
2022-08-01T13:33:52.403Z,101733.00
2022-08-01T13:36:30.991Z,101719.00
2022-08-01T13:39:17.270Z,101717.00
2022-08-01T13:41:45.883Z,101717.00
2022-08-01T13:44:14.642Z,101721.00
2022-08-01T13:46:49.670Z,101719.00
2022-08-01T13:49:20.238Z,101722.00
2022-08-01T13:51:51.040Z,101716.00
2022-08-01T13:54:19.473Z,101724.00
2022-08-01T13:56:47.842Z,101716.00
2022-08-01T13:59:16.057Z,101718.00
2022-08-01T14:01:44.638Z,101716.00
2022-08-01T14:04:12.970Z,101705.00
2022-08-01T14:06:41.967Z,101702.00
2022-08-01T14:09:17.930Z,101709.00
2022-08-01T14:11:52.893Z,101699.00
2022-08-01T14:14:21.116Z,101708.00
2022-08-01T14:16:49.386Z,101693.00
2022-08-01T14:19:19.364Z,101705.00
2022-08-01T14:22:05.240Z,101707.00
2022-08-01T14:24:35.124Z,101704.00
2022-08-01T14:27:03.858Z,101694.00
2022-08-01T14:30:00.286Z,101691.00
2022-08-01T14:32:22.301Z,101690.00
2022-08-01T14:34:54.728Z,101695.00
2022-08-01T14:37:23.262Z,101685.00
2022-08-01T14:39:59.008Z,101691.00
2022-08-01T14:42:27.651Z,101695.00
2022-08-01T14:44:55.949Z,101689.00
2022-08-01T14:47:24.172Z,101688.00
2022-08-01T14:49:52.829Z,101677.00
2022-08-01T14:52:22.329Z,101687.00
2022-08-01T14:54:50.762Z,101687.00
2022-08-01T14:57:20.445Z,101694.00
2022-08-01T14:59:48.957Z,101690.00
2022-08-01T15:02:18.133Z,101699.00
2022-08-01T15:04:46.681Z,101692.00
2022-08-01T15:07:15.423Z,101690.00
2022-08-01T15:09:44.298Z,101694.00
2022-08-01T15:12:13.078Z,101694.00
2022-08-01T15:14:52.038Z,101692.00
2022-08-01T15:17:23.758Z,101693.00
2022-08-01T15:19:54.635Z,101695.00
2022-08-01T15:22:23.441Z,101690.00
2022-08-01T15:24:57.127Z,101689.00
2022-08-01T15:27:26.066Z,101681.00
2022-08-01T15:29:56.298Z,101682.00
2022-08-01T15:32:24.785Z,101666.00
2022-08-01T15:34:53.011Z,101680.00
2022-08-01T15:37:21.664Z,101674.00
2022-08-01T15:39:50.218Z,101680.00
2022-08-01T15:42:25.569Z,101682.00
2022-08-01T15:44:56.743Z,101680.00
2022-08-01T15:47:25.254Z,101679.00
2022-08-01T15:49:56.688Z,101684.00
2022-08-01T15:52:31.595Z,101683.00
2022-08-01T15:55:00.463Z,101682.00
2022-08-01T15:57:28.764Z,101681.00
2022-08-01T15:59:59.322Z,101670.00
2022-08-01T16:02:27.541Z,101683.00
2022-08-01T16:04:55.782Z,101677.00
2022-08-01T16:07:23.979Z,101686.00
2022-08-01T16:09:52.220Z,101691.00
2022-08-01T16:12:20.515Z,101682.00
2022-08-01T16:14:48.843Z,101690.00
2022-08-01T16:17:18.560Z,101690.00
2022-08-01T16:19:46.971Z,101688.00
2022-08-01T16:22:15.553Z,101694.00
2022-08-01T16:24:44.199Z,101696.00
2022-08-01T16:27:12.827Z,101692.00
2022-08-01T16:29:41.704Z,101691.00
2022-08-01T16:32:15.798Z,101694.00
2022-08-01T16:35:00.083Z,101693.00
2022-08-01T16:37:30.224Z,101695.00
2022-08-01T16:39:58.743Z,101706.00
2022-08-01T16:42:27.941Z,101700.00
2022-08-01T16:44:56.767Z,101707.00
2022-08-01T16:47:25.344Z,101715.00
2022-08-01T16:49:53.923Z,101716.00
2022-08-01T16:52:23.904Z,101705.00
2022-08-01T16:54:58.074Z,101703.00
2022-08-01T16:57:26.485Z,101709.00
2022-08-01T16:59:54.894Z,101697.00
2022-08-01T17:02:24.786Z,101703.00
2022-08-01T17:04:53.319Z,101702.00
2022-08-01T17:07:23.040Z,101693.00
2022-08-01T17:09:51.375Z,101705.00
2022-08-01T17:12:22.290Z,101687.00
2022-08-01T17:14:51.333Z,101706.00
2022-08-01T17:17:20.079Z,101719.00
2022-08-01T17:19:48.538Z,101696.00
2022-08-01T17:22:17.290Z,101714.00
2022-08-01T17:24:47.094Z,101700.00
2022-08-01T17:27:15.723Z,101696.00
2022-08-01T17:29:44.700Z,101696.00
2022-08-01T17:32:14.110Z,101700.00
2022-08-01T17:34:42.936Z,101708.00
2022-08-01T17:37:11.830Z,101696.00
2022-08-01T17:39:40.398Z,101703.00
2022-08-01T17:42:11.119Z,101701.00
2022-08-01T17:44:41.729Z,101702.00
2022-08-01T17:47:40.867Z,101711.00
2022-08-01T17:50:09.599Z,101710.00
2022-08-01T17:52:38.420Z,101714.00
2022-08-01T17:55:53.252Z,101715.00
2022-08-01T17:57:58.474Z,101710.00
2022-08-01T18:00:26.762Z,101723.00
2022-08-01T18:02:55.081Z,101729.00
2022-08-01T18:05:36.899Z,101711.00
2022-08-01T18:08:06.743Z,101702.00
2022-08-01T18:10:35.307Z,101724.00
2022-08-01T18:13:10.273Z,101728.00
2022-08-01T18:15:38.740Z,101721.00
2022-08-01T18:18:07.695Z,101726.00
2022-08-01T18:20:36.806Z,101718.00
2022-08-01T18:23:08.653Z,101708.00
2022-08-01T18:25:37.042Z,101734.00
2022-08-01T18:28:23.361Z,101706.00
2022-08-01T18:30:56.003Z,101713.00
2022-08-01T18:33:24.464Z,101740.00
2022-08-01T18:35:53.675Z,101743.00
2022-08-01T18:38:23.999Z,101742.00
2022-08-01T18:40:53.526Z,101745.00
2022-08-01T18:43:21.931Z,101749.00
2022-08-01T18:45:50.185Z,101744.00
2022-08-01T18:48:20.203Z,101728.00
2022-08-01T18:50:48.657Z,101746.00
2022-08-01T18:53:18.749Z,101744.00
2022-08-01T18:55:47.754Z,101711.00
2022-08-01T18:58:16.472Z,101711.00
2022-08-01T19:00:45.051Z,101738.00
2022-08-01T19:03:13.795Z,101730.00
2022-08-01T19:05:43.644Z,101727.00
2022-08-01T19:08:12.237Z,101729.00
2022-08-01T19:10:41.631Z,101741.00
2022-08-01T19:13:10.915Z,101737.00
2022-08-01T19:15:39.199Z,101738.00
2022-08-01T19:18:09.273Z,101737.00
2022-08-01T19:20:38.853Z,101748.00
2022-08-01T19:23:22.380Z,101746.00
2022-08-01T19:26:07.623Z,101745.00
2022-08-01T19:28:46.800Z,101752.00
2022-08-01T19:34:01.270Z,101752.00
2022-08-01T19:36:30.512Z,101756.00
2022-08-01T19:39:00.714Z,101754.00
2022-08-01T19:41:31.558Z,101755.00
2022-08-01T19:44:03.710Z,101767.00
2022-08-01T19:46:32.957Z,101760.00
2022-08-01T19:49:02.137Z,101772.00
2022-08-01T19:51:34.065Z,101767.00
2022-08-01T19:54:08.631Z,101764.00
2022-08-01T19:56:40.828Z,101772.00
2022-08-01T19:59:26.290Z,101770.00
2022-08-01T20:02:11.990Z,101773.00
2022-08-01T20:04:51.962Z,101773.00
2022-08-01T20:07:21.911Z,101781.00
2022-08-01T20:09:54.282Z,101792.00
2022-08-01T20:12:28.539Z,101785.00
2022-08-01T20:14:58.302Z,101777.00
2022-08-01T20:17:27.340Z,101774.00
2022-08-01T20:19:56.903Z,101775.00
2022-08-01T20:22:29.820Z,101774.00
2022-08-01T20:25:01.368Z,101777.00
2022-08-01T20:27:33.268Z,101781.00
2022-08-01T20:30:03.283Z,101783.00
2022-08-01T20:32:35.409Z,101791.00
2022-08-01T20:35:06.816Z,101790.00
2022-08-01T20:38:03.332Z,101783.00
2022-08-01T20:40:30.255Z,101788.00
2022-08-01T20:42:59.666Z,101789.00
2022-08-01T20:45:29.062Z,101790.00
2022-08-01T20:47:59.488Z,101788.00
2022-08-01T20:50:52.789Z,101787.00
2022-08-01T20:53:24.044Z,101781.00
2022-08-01T20:56:05.938Z,101774.00
2022-08-01T20:58:47.906Z,101770.00
2022-08-01T21:01:20.627Z,101774.00
2022-08-01T21:04:05.166Z,101774.00
2022-08-01T21:06:39.265Z,101774.00
2022-08-01T21:09:08.505Z,101773.00
2022-08-01T21:11:44.527Z,101780.00
2022-08-01T21:14:16.147Z,101772.00
2022-08-01T21:16:56.330Z,101755.00
2022-08-01T21:19:29.337Z,101765.00
2022-08-01T21:22:10.073Z,101748.00
2022-08-01T21:24:58.422Z,101757.00
2022-08-01T21:27:33.561Z,101779.00
2022-08-01T21:30:05.841Z,101779.00
2022-08-01T21:32:36.100Z,101778.00
2022-08-01T21:35:16.195Z,101785.00
2022-08-01T21:37:51.879Z,101776.00
2022-08-01T21:40:24.428Z,101783.00
2022-08-01T21:42:56.809Z,101783.00
2022-08-01T21:45:27.497Z,101790.00
2022-08-01T21:47:59.063Z,101780.00
2022-08-01T21:50:29.051Z,101779.00
2022-08-01T21:53:12.024Z,101787.00
2022-08-01T21:55:56.082Z,101786.00
2022-08-01T21:58:36.631Z,101782.00
2022-08-01T22:01:11.267Z,101785.00
2022-08-01T22:03:48.126Z,101787.00
2022-08-01T22:06:19.263Z,101780.00
2022-08-01T22:08:54.178Z,101783.00
2022-08-01T22:11:27.813Z,101780.00
2022-08-01T22:14:03.498Z,101781.00
2022-08-01T22:16:35.314Z,101784.00
2022-08-01T22:19:05.822Z,101784.00
2022-08-01T22:21:36.887Z,101782.00
2022-08-01T22:24:08.840Z,101779.00
2022-08-01T22:26:40.074Z,101779.00
2022-08-01T22:29:11.588Z,101761.00
2022-08-01T22:31:41.613Z,101773.00
2022-08-01T22:34:12.211Z,101769.00
2022-08-01T22:36:41.911Z,101774.00
2022-08-01T22:39:12.303Z,101782.00
2022-08-01T22:42:11.561Z,101782.00
2022-08-01T22:44:55.703Z,101787.00
2022-08-01T22:47:49.139Z,101785.00
2022-08-01T22:50:36.487Z,101794.00
2022-08-01T22:53:24.113Z,101783.00
2022-08-01T22:55:58.556Z,101778.00
2022-08-01T22:58:33.635Z,101778.00
2022-08-01T23:01:09.797Z,101776.00
2022-08-01T23:03:43.310Z,101781.00
2022-08-01T23:06:17.005Z,101774.00
2022-08-01T23:08:49.554Z,101770.00
2022-08-01T23:11:22.627Z,101767.00
2022-08-01T23:13:53.666Z,101771.00
2022-08-01T23:16:24.285Z,101756.00
2022-08-01T23:18:55.893Z,101775.00
2022-08-01T23:21:25.592Z,101774.00
2022-08-01T23:23:56.831Z,101769.00
2022-08-01T23:26:27.514Z,101773.00
2022-08-01T23:28:57.644Z,101770.00
2022-08-01T23:31:51.771Z,101768.00
2022-08-01T23:34:20.192Z,101760.00
2022-08-01T23:36:51.600Z,101761.00
2022-08-01T23:39:21.883Z,101755.00
2022-08-01T23:41:57.716Z,101739.00
2022-08-01T23:44:28.708Z,101766.00
2022-08-01T23:46:59.778Z,101762.00
2022-08-01T23:49:29.376Z,101762.00
2022-08-01T23:51:58.578Z,101751.00
2022-08-01T23:54:27.472Z,101747.00
2022-08-01T23:57:02.147Z,101746.00
2022-08-01T23:59:52.910Z,101753.00
